Time;durP1;ratioP1;P1;durP2;ratioP2;P2;SDS_P1;SDS_P2;PMS_P1;PMS_P2;Temp;Humidity;BMP_temperature;BMP_pressure;BME280_temperature;BME280_humidity;BME280_pressure;Samples;Min_cycle;Max_cycle;Signal;HPM_P1;HPM_P2
2020/12/19 00:00:06;;;;;;;20.12;13.05;;;;;;;10.61;55.63;100784.02;1775573;80;21363;-75
2020/12/19 00:02:33;;;;;;;16.60;11.80;;;;;;;10.62;55.60;100788.84;1779810;80;21202;-74
2020/12/19 00:05:02;;;;;;;16.23;12.05;;;;;;;10.62;55.57;100795.48;1783894;80;21175;-74
2020/12/19 00:07:30;;;;;;;18.27;13.28;;;;;;;10.61;55.56;100793.82;1784061;80;21583;-77
2020/12/19 00:09:57;;;;;;;17.87;12.18;;;;;;;10.61;55.55;100793.32;1779578;80;21615;-78
2020/12/19 00:12:24;;;;;;;18.60;12.60;;;;;;;10.61;55.51;100791.16;1786027;80;23572;-78
2020/12/19 00:14:52;;;;;;;16.65;12.13;;;;;;;10.60;55.48;100790.34;1783404;80;21155;-75
2020/12/19 00:17:19;;;;;;;14.95;11.65;;;;;;;10.61;55.47;100792.49;1786500;80;21167;-74
2020/12/19 00:19:47;;;;;;;15.75;11.90;;;;;;;10.61;55.44;100788.51;1784998;80;21198;-74
2020/12/19 00:22:14;;;;;;;15.38;12.00;;;;;;;10.60;55.41;100791.66;1786159;79;21154;-75
2020/12/19 00:24:41;;;;;;;15.28;11.85;;;;;;;10.61;55.42;100797.31;1768811;80;21322;-75
2020/12/19 00:27:09;;;;;;;15.98;11.57;;;;;;;10.61;55.39;100796.48;1755495;80;21150;-74
2020/12/19 00:29:38;;;;;;;17.80;12.33;;;;;;;10.61;55.37;100799.97;1763263;80;21906;-75
2020/12/19 00:32:05;;;;;;;15.93;12.00;;;;;;;10.61;55.36;100801.80;1737254;82;21166;-74
2020/12/19 00:34:33;;;;;;;19.27;12.88;;;;;;;10.60;55.34;100798.30;1688356;83;21405;-74
2020/12/19 00:37:01;;;;;;;18.27;12.10;;;;;;;10.61;55.33;100803.13;1718007;83;21386;-74
2020/12/19 00:39:28;;;;;;;17.75;12.70;;;;;;;10.61;55.29;100795.15;1720567;81;21130;-74
2020/12/19 00:41:56;;;;;;;14.98;10.98;;;;;;;10.61;55.26;100795.15;1722081;82;21208;-76
2020/12/19 00:44:23;;;;;;;15.38;11.12;;;;;;;10.60;55.24;100786.81;1710169;83;21195;-73
2020/12/19 00:46:51;;;;;;;17.07;12.03;;;;;;;10.61;55.24;100789.84;1705684;83;21135;-73
2020/12/19 00:49:19;;;;;;;16.80;12.35;;;;;;;10.61;55.25;100793.82;1711487;83;21200;-72
2020/12/19 00:51:46;;;;;;;14.58;11.55;;;;;;;10.59;55.24;100793.95;1746741;82;21138;-72
2020/12/19 00:54:13;;;;;;;16.65;12.33;;;;;;;10.60;55.20;100790.80;1736199;80;21197;-74
2020/12/19 00:56:41;;;;;;;16.12;12.53;;;;;;;10.60;55.18;100796.98;1727558;82;21356;-72
2020/12/19 00:59:08;;;;;;;16.73;11.38;;;;;;;10.61;55.15;100795.98;1697481;83;21142;-73
2020/12/19 01:01:35;;;;;;;16.15;11.28;;;;;;;10.60;55.12;100785.02;1722666;82;21375;-73
2020/12/19 01:04:02;;;;;;;16.27;12.30;;;;;;;10.60;55.11;100788.14;1714420;83;21203;-74
2020/12/19 01:06:30;;;;;;;14.95;11.38;;;;;;;10.59;55.11;100788.64;1746381;82;21161;-75
2020/12/19 01:08:59;;;;;;;15.88;12.03;;;;;;;10.60;55.08;100793.45;1714870;83;21627;-75
2020/12/19 01:11:29;;;;;;;14.80;11.83;;;;;;;10.59;55.08;100793.95;1718649;83;22141;-75
2020/12/19 01:13:57;;;;;;;14.40;10.70;;;;;;;10.58;55.07;100789.61;1720670;83;21214;-74
2020/12/19 01:16:27;;;;;;;15.50;11.20;;;;;;;10.58;55.05;100792.27;1740827;82;21133;-75
2020/12/19 01:18:57;;;;;;;18.42;12.98;;;;;;;10.58;55.07;100798.08;1717151;82;21233;-75
2020/12/19 01:21:27;;;;;;;15.05;11.68;;;;;;;10.58;55.05;100790.11;1709119;82;21209;-75
2020/12/19 01:23:55;;;;;;;16.93;11.88;;;;;;;10.57;55.05;100793.77;1790698;78;21093;-76
2020/12/19 01:26:23;;;;;;;16.30;11.33;;;;;;;10.57;55.05;100799.08;1777752;78;21174;-74
2020/12/19 01:28:50;;;;;;;14.07;11.30;;;;;;;10.56;55.03;100798.71;1798771;79;21138;-74
2020/12/19 01:31:20;;;;;;;14.70;11.60;;;;;;;10.56;55.02;100796.89;1764221;80;21359;-74
2020/12/19 01:33:48;;;;;;;14.20;10.90;;;;;;;10.57;55.05;100800.41;1746685;81;21177;-74
2020/12/19 01:36:20;;;;;;;15.90;11.40;;;;;;;10.56;55.03;100802.20;1748853;81;21128;-73
2020/12/19 01:38:47;;;;;;;15.85;12.15;;;;;;;10.56;54.98;100799.55;1738307;81;21358;-73
2020/12/19 01:41:15;;;;;;;14.90;10.95;;;;;;;10.56;54.99;100800.05;1737651;81;21205;-75
2020/12/19 01:43:46;;;;;;;14.65;10.85;;;;;;;10.56;54.96;100800.88;1760072;79;21115;-74
2020/12/19 01:46:29;;;;;;;16.42;11.75;;;;;;;10.56;54.94;100799.55;1747641;80;21924;-74
2020/12/19 01:48:57;;;;;;;16.27;11.45;;;;;;;10.56;54.93;100800.05;1810357;78;21086;-73
2020/12/19 01:51:27;;;;;;;14.87;11.10;;;;;;;10.55;54.93;100800.54;1806166;78;22082;-73
2020/12/19 01:53:56;;;;;;;14.63;11.30;;;;;;;10.55;54.93;100802.37;1776290;78;21144;-71
2020/12/19 01:56:48;;;;;;;16.60;11.35;;;;;;;10.54;54.94;100802.00;1761305;81;21201;-71
2020/12/19 01:59:16;;;;;;;13.10;10.93;;;;;;;10.54;54.95;100800.17;1742470;81;21647;-72
2020/12/19 02:01:54;;;;;;;15.20;11.78;;;;;;;10.54;54.95;100804.66;1753279;81;21185;-72
2020/12/19 02:04:25;;;;;;;14.30;11.25;;;;;;;10.54;54.94;100807.32;1742169;81;21304;-73
2020/12/19 02:06:55;;;;;;;15.63;11.88;;;;;;;10.53;54.93;100798.52;1739118;81;21152;-72
2020/12/19 02:09:26;;;;;;;13.58;10.72;;;;;;;10.54;54.93;100801.50;1742589;81;21635;-73
2020/12/19 02:11:54;;;;;;;15.15;11.08;;;;;;;10.54;54.90;100802.00;1734859;79;21573;-73
2020/12/19 02:14:21;;;;;;;14.68;10.95;;;;;;;10.53;54.89;100803.00;1745553;79;21151;-74
2020/12/19 02:17:01;;;;;;;15.45;11.40;;;;;;;10.53;54.87;100795.03;1771982;80;21328;-75
2020/12/19 02:19:28;;;;;;;14.45;10.15;;;;;;;10.38;54.86;100768.88;1750103;81;21129;-73
2020/12/19 02:21:56;;;;;;;14.00;10.72;;;;;;;10.54;54.87;100790.05;1771678;80;21767;-73
2020/12/19 02:24:25;;;;;;;15.10;11.57;;;;;;;10.54;54.86;100794.86;1792660;78;21171;-76
2020/12/19 02:26:55;;;;;;;13.85;10.70;;;;;;;10.54;54.85;100793.53;1800293;79;21142;-75
2020/12/19 02:29:25;;;;;;;13.93;10.45;;;;;;;10.54;54.81;100796.19;1784866;80;21356;-74
2020/12/19 02:31:53;;;;;;;13.83;10.35;;;;;;;10.54;54.82;100796.69;1778319;79;21151;-75
2020/12/19 02:34:20;;;;;;;14.98;10.98;;;;;;;10.53;54.79;100801.17;1775171;80;21203;-74
2020/12/19 02:36:48;;;;;;;15.63;11.57;;;;;;;10.54;54.75;100804.16;1767950;80;21619;-75
2020/12/19 02:39:15;;;;;;;13.98;11.15;;;;;;;10.54;54.78;100794.86;1761884;80;21163;-75
2020/12/19 02:41:46;;;;;;;14.75;11.40;;;;;;;10.54;54.74;100797.52;1757285;79;21439;-75
2020/12/19 02:44:16;;;;;;;14.38;10.70;;;;;;;10.55;54.73;100795.72;1750192;80;21195;-74
2020/12/19 02:46:43;;;;;;;13.25;10.13;;;;;;;10.55;54.71;100795.72;1771184;80;21163;-74
2020/12/19 02:49:13;;;;;;;13.05;10.82;;;;;;;10.55;54.70;100801.04;1773591;79;21177;-74
2020/12/19 02:51:40;;;;;;;15.15;11.68;;;;;;;10.54;54.71;100798.02;1778083;79;21126;-74
2020/12/19 02:54:07;;;;;;;13.20;10.78;;;;;;;10.54;54.71;100801.50;1763738;81;21315;-74
2020/12/19 02:56:35;;;;;;;11.55;9.23;;;;;;;10.54;54.67;100808.15;1774119;80;21261;-75
2020/12/19 02:59:02;;;;;;;13.08;10.03;;;;;;;10.54;54.67;100800.17;1801018;78;21200;-75
2020/12/19 03:01:32;;;;;;;12.98;10.28;;;;;;;10.54;54.66;100800.67;1788854;78;21188;-75
2020/12/19 03:04:00;;;;;;;14.45;10.82;;;;;;;10.54;54.65;100805.49;1811534;78;21173;-76
2020/12/19 03:06:29;;;;;;;13.88;10.20;;;;;;;10.55;54.67;100802.37;1774388;80;21175;-76
2020/12/19 03:08:56;;;;;;;12.88;10.20;;;;;;;10.54;54.63;100794.86;1774505;78;21118;-75
2020/12/19 03:11:23;;;;;;;12.82;9.70;;;;;;;10.55;54.62;100797.05;1803644;78;21205;-75
2020/12/19 03:13:50;;;;;;;12.95;9.50;;;;;;;10.54;54.58;100791.38;1771164;80;21115;-75
2020/12/19 03:16:18;;;;;;;13.90;10.40;;;;;;;10.54;54.59;100792.70;1778903;79;21177;-75
2020/12/19 03:18:45;;;;;;;12.07;9.60;;;;;;;10.54;54.58;100788.72;1772708;79;21398;-73
2020/12/19 03:21:13;;;;;;;13.45;10.32;;;;;;;10.54;54.62;100781.58;1767932;80;21202;-74
2020/12/19 03:23:40;;;;;;;12.07;9.95;;;;;;;10.54;54.57;100784.23;1726044;80;21158;-74
2020/12/19 03:26:09;;;;;;;12.75;9.98;;;;;;;10.55;54.58;100790.41;1771045;80;21135;-73
2020/12/19 03:28:36;;;;;;;13.78;11.03;;;;;;;10.55;54.57;100791.73;1766365;80;21119;-73
2020/12/19 03:31:04;;;;;;;13.10;10.40;;;;;;;10.46;54.56;100782.79;1778954;80;21618;-73
2020/12/19 03:33:31;;;;;;;12.75;10.13;;;;;;;10.55;54.56;100793.90;1777472;80;21162;-73
2020/12/19 03:35:59;;;;;;;12.05;9.68;;;;;;;10.54;54.56;100798.84;1786539;78;21324;-73
2020/12/19 03:38:26;;;;;;;13.35;9.85;;;;;;;10.55;54.52;100799.71;1788809;79;21120;-73
2020/12/19 03:40:53;;;;;;;13.08;10.20;;;;;;;10.54;54.52;100800.17;1781301;80;21170;-73
2020/12/19 03:43:21;;;;;;;14.05;10.53;;;;;;;10.54;54.50;100802.83;1782477;80;21195;-74
2020/12/19 03:45:48;;;;;;;13.95;10.90;;;;;;;10.55;54.54;100801.04;1760820;79;21126;-73
2020/12/19 03:48:16;;;;;;;13.93;10.68;;;;;;;10.55;54.51;100805.02;1776641;80;21111;-74
2020/12/19 03:50:44;;;;;;;12.75;9.70;;;;;;;10.54;54.50;100803.33;1771190;80;21138;-73
2020/12/19 03:53:11;;;;;;;13.25;10.15;;;;;;;10.54;54.50;100806.82;1771943;79;21607;-75
2020/12/19 03:55:38;;;;;;;13.78;9.60;;;;;;;10.54;54.49;100808.15;1769000;80;21206;-75
2020/12/19 03:58:05;;;;;;;13.83;10.60;;;;;;;10.54;54.49;100804.16;1798514;78;21141;-75
2020/12/19 04:00:34;;;;;;;13.00;10.20;;;;;;;10.55;54.48;100807.69;1816831;78;21597;-74
2020/12/19 04:03:01;;;;;;;13.58;9.75;;;;;;;10.55;54.50;100809.01;1777666;80;21178;-73
2020/12/19 04:05:28;;;;;;;12.40;10.18;;;;;;;10.54;54.45;100811.30;1776055;80;21115;-75
2020/12/19 04:07:55;;;;;;;13.00;10.45;;;;;;;10.55;54.45;100810.34;1777884;80;21362;-74
2020/12/19 04:10:23;;;;;;;12.20;10.15;;;;;;;10.55;54.43;100811.66;1782820;79;21195;-73
2020/12/19 04:12:53;;;;;;;13.18;9.93;;;;;;;10.55;54.43;100808.52;1773272;80;21319;-74
2020/12/19 04:15:23;;;;;;;12.90;9.83;;;;;;;10.50;54.41;100801.94;1776998;79;21118;-74
2020/12/19 04:17:51;;;;;;;14.28;10.53;;;;;;;10.54;54.42;100808.15;1784834;80;21438;-75
2020/12/19 04:20:18;;;;;;;11.78;9.23;;;;;;;10.55;54.40;100809.01;1778582;80;21921;-75
2020/12/19 04:22:45;;;;;;;13.78;10.35;;;;;;;10.54;54.41;100807.32;1779105;80;21619;-75
2020/12/19 04:25:13;;;;;;;15.00;11.53;;;;;;;10.55;54.42;100807.69;1769982;80;21183;-75
2020/12/19 04:27:42;;;;;;;13.00;10.08;;;;;;;10.54;54.41;100805.98;1750224;80;21175;-75
2020/12/19 04:33:10;;;;;;;12.58;10.13;;;;;;;10.59;54.44;100809.07;1806968;76;28242;-76
2020/12/19 04:35:38;;;;;;;13.55;10.85;;;;;;;10.53;54.39;100805.66;1780933;77;21159;-75
2020/12/19 04:38:05;;;;;;;13.68;10.40;;;;;;;10.53;54.37;100803.00;1767779;79;21355;-76
2020/12/19 04:40:32;;;;;;;12.98;10.00;;;;;;;10.54;54.37;100800.67;1804399;78;21118;-75
2020/12/19 04:43:03;;;;;;;12.45;10.15;;;;;;;10.53;54.37;100803.83;1805791;78;21127;-76
2020/12/19 04:45:31;;;;;;;12.93;10.10;;;;;;;10.54;54.35;100805.49;1773942;79;21144;-77
2020/12/19 04:47:58;;;;;;;13.65;10.78;;;;;;;10.53;54.34;100806.48;1789185;78;20980;-74
2020/12/19 04:50:27;;;;;;;13.60;9.93;;;;;;;10.54;54.35;100804.66;1779769;78;21368;-76
2020/12/19 04:52:54;;;;;;;14.03;10.53;;;;;;;10.54;54.35;100800.67;1798589;77;21103;-75
2020/12/19 04:55:21;;;;;;;13.72;10.38;;;;;;;10.54;54.30;100798.84;1769891;80;21652;-76
2020/12/19 04:57:48;;;;;;;15.20;11.30;;;;;;;10.54;54.36;100799.34;1749613;81;21150;-73
2020/12/19 05:00:16;;;;;;;15.72;10.53;;;;;;;10.53;54.32;100798.52;1740351;81;21142;-73
2020/12/19 05:02:43;;;;;;;14.10;10.43;;;;;;;10.54;54.34;100803.33;1750834;79;21366;-74
2020/12/19 05:05:11;;;;;;;14.13;10.50;;;;;;;10.54;54.31;100800.67;1759438;80;21122;-74
2020/12/19 05:07:40;;;;;;;14.18;11.28;;;;;;;10.54;54.31;100798.02;1754539;79;21155;-75
2020/12/19 05:10:07;;;;;;;12.07;9.95;;;;;;;10.54;54.30;100797.52;1762347;81;21163;-75
2020/12/19 05:12:34;;;;;;;14.50;11.33;;;;;;;10.54;54.30;100794.03;1759696;79;21192;-75
2020/12/19 05:15:07;;;;;;;15.72;11.25;;;;;;;10.53;54.30;100796.36;1760000;80;21431;-74
2020/12/19 05:17:34;;;;;;;14.77;10.27;;;;;;;10.54;54.29;100794.03;1726435;79;21650;-73
2020/12/19 05:20:02;;;;;;;12.98;9.70;;;;;;;10.54;54.29;100797.52;1768766;80;21127;-73
2020/12/19 05:22:32;;;;;;;13.80;10.23;;;;;;;10.54;54.28;100801.50;1733242;81;21157;-75
2020/12/19 05:25:01;;;;;;;13.45;10.30;;;;;;;10.53;54.27;100797.19;1800771;79;21116;-74
2020/12/19 05:27:29;;;;;;;14.03;10.48;;;;;;;10.54;54.24;100799.34;1785349;79;21397;-74
2020/12/19 05:29:56;;;;;;;12.53;9.60;;;;;;;10.54;54.26;100797.52;1786565;79;21183;-74
2020/12/19 05:32:26;;;;;;;13.85;9.88;;;;;;;10.54;54.27;100802.00;1766936;79;21603;-74
2020/12/19 05:34:53;;;;;;;14.40;10.25;;;;;;;10.55;54.23;100802.37;1795562;79;21174;-73
2020/12/19 05:37:21;;;;;;;14.15;10.50;;;;;;;10.54;54.23;100796.69;1767290;79;21705;-75
2020/12/19 05:39:52;;;;;;;14.68;10.58;;;;;;;10.53;54.23;100801.17;1795679;79;23634;-74
2020/12/19 05:42:23;;;;;;;11.75;9.80;;;;;;;10.54;54.23;100808.64;1777968;80;21127;-75
2020/12/19 05:44:50;;;;;;;14.63;10.13;;;;;;;10.52;54.23;100812.77;1795060;79;21102;-74
2020/12/19 05:47:17;;;;;;;12.23;10.25;;;;;;;10.52;54.27;100816.75;1778478;80;21147;-75
2020/12/19 05:49:44;;;;;;;14.10;10.23;;;;;;;10.53;54.25;100822.43;1795021;79;21106;-76
2020/12/19 05:52:12;;;;;;;12.93;10.75;;;;;;;10.53;54.24;100820.27;1778567;80;22198;-76
2020/12/19 05:54:41;;;;;;;12.55;10.25;;;;;;;10.53;54.23;100825.09;1795004;78;21888;-75
2020/12/19 05:57:08;;;;;;;13.03;10.05;;;;;;;10.53;54.23;100829.08;1771134;80;21174;-75
2020/12/19 05:59:35;;;;;;;12.78;10.00;;;;;;;10.53;54.22;100833.55;1785985;79;21139;-74
2020/12/19 06:02:03;;;;;;;14.10;10.45;;;;;;;10.52;54.21;100834.02;1768714;80;21474;-74
2020/12/19 06:04:30;;;;;;;13.08;9.75;;;;;;;10.48;54.23;100830.47;1764466;79;23566;-73
2020/12/19 06:06:58;;;;;;;13.08;9.40;;;;;;;10.52;54.24;100843.82;1794706;78;21186;-74
2020/12/19 06:09:25;;;;;;;12.15;9.40;;;;;;;10.51;54.25;100845.65;1778565;80;21192;-74
2020/12/19 06:12:14;;;;;;;13.50;10.05;;;;;;;10.52;54.25;100856.61;1794968;78;21167;-74
2020/12/19 06:14:45;;;;;;;11.28;9.03;;;;;;;10.46;54.22;100850.53;1795009;79;21134;-75
2020/12/19 06:17:52;;;;;;;12.30;9.85;;;;;;;10.51;54.23;100872.72;1775107;80;21360;-74
2020/12/19 06:20:19;;;;;;;12.45;9.75;;;;;;;10.50;54.27;100872.34;1795035;79;21114;-75
2020/12/19 06:22:47;;;;;;;13.05;9.98;;;;;;;10.48;54.29;100879.62;1755457;79;21105;-75
2020/12/19 06:25:42;;;;;;;11.85;9.25;;;;;;;10.47;54.31;100877.92;1778549;80;21151;-74
2020/12/19 06:28:09;;;;;;;;;;;;;;;10.48;54.32;100884.44;1797655;78;21138;-74
2020/12/19 06:30:36;;;;;;;11.35;9.10;;;;;;;10.47;54.33;100890.75;1778669;80;21104;-74
2020/12/19 06:33:11;;;;;;;11.83;9.85;;;;;;;10.40;54.41;100886.95;1787106;79;21136;-76
2020/12/19 06:35:40;;;;;;;13.75;9.80;;;;;;;10.40;54.45;100889.12;1746946;80;21193;-76
2020/12/19 06:38:07;;;;;;;13.45;10.45;;;;;;;10.41;54.43;100890.81;1727803;80;21151;-77
2020/12/19 06:40:38;;;;;;;11.45;9.35;;;;;;;10.43;54.38;100895.99;1778008;79;21159;-77
2020/12/19 06:43:14;;;;;;;12.95;9.73;;;;;;;10.44;54.38;100906.95;1777714;79;21364;-78
2020/12/19 06:45:41;;;;;;;15.50;10.53;;;;;;;10.45;54.36;100903.33;1766452;78;21154;-77
2020/12/19 06:48:33;;;;;;;13.32;9.83;;;;;;;10.45;54.35;100902.00;1777255;79;21134;-77
2020/12/19 06:51:03;;;;;;;13.78;10.05;;;;;;;10.46;54.35;100902.83;1778708;79;21139;-76
2020/12/19 06:53:32;;;;;;;12.90;9.48;;;;;;;10.46;54.35;100910.30;1762966;79;21142;-76
2020/12/19 06:55:59;;;;;;;14.23;9.90;;;;;;;10.47;54.34;100909.81;1778394;78;21399;-76
2020/12/19 06:58:28;;;;;;;14.18;10.68;;;;;;;10.49;54.33;100907.84;1788845;78;21638;-77
2020/12/19 07:00:56;;;;;;;14.43;10.23;;;;;;;10.48;54.31;100903.03;1761377;79;21162;-77
2020/12/19 07:03:41;;;;;;;13.83;10.18;;;;;;;10.50;54.28;100905.06;1789842;78;21130;-78
2020/12/19 07:06:13;;;;;;;13.95;9.93;;;;;;;10.50;54.28;100907.72;1786918;79;21673;-77
2020/12/19 07:08:43;;;;;;;13.48;10.28;;;;;;;10.51;54.28;100904.59;1774895;79;21192;-75
2020/12/19 07:11:39;;;;;;;13.18;9.58;;;;;;;10.51;54.30;100901.44;1791534;79;21162;-76
2020/12/19 07:14:13;;;;;;;11.28;9.78;;;;;;;10.52;54.25;100897.79;1756119;80;21168;-75
2020/12/19 07:16:51;;;;;;;12.23;9.88;;;;;;;10.53;54.24;100903.97;1750920;81;21143;-76
2020/12/19 07:19:27;;;;;;;13.60;9.55;;;;;;;10.53;54.22;100909.28;1774866;78;21585;-77
2020/12/19 07:21:57;;;;;;;12.95;9.35;;;;;;;10.53;54.22;100903.97;1782170;79;21583;-75
2020/12/19 07:24:24;;;;;;;12.05;10.15;;;;;;;10.52;54.22;100903.60;1784826;78;21174;-75
2020/12/19 07:26:53;;;;;;;13.25;9.93;;;;;;;10.53;54.22;100901.31;1768605;78;21177;-75
2020/12/19 07:29:22;;;;;;;12.90;10.18;;;;;;;10.53;54.20;100903.47;1775872;79;21178;-75
2020/12/19 07:31:58;;;;;;;11.28;9.03;;;;;;;10.54;54.21;100902.97;1787202;78;21566;-73
2020/12/19 07:34:27;;;;;;;12.78;9.28;;;;;;;10.55;54.19;100890.05;1766941;79;21383;-75
2020/12/19 07:36:55;;;;;;;13.03;9.90;;;;;;;10.56;54.19;100895.20;1774590;79;21174;-75
2020/12/19 07:39:23;;;;;;;13.28;10.13;;;;;;;10.56;54.20;100898.35;1782387;79;21202;-75
2020/12/19 07:42:03;;;;;;;12.00;9.40;;;;;;;10.59;54.18;100900.74;1771683;79;21639;-76
2020/12/19 07:44:31;;;;;;;12.35;9.48;;;;;;;10.60;54.14;100903.73;1766791;79;21154;-76
2020/12/19 07:47:01;;;;;;;14.60;10.38;;;;;;;10.59;54.11;100896.76;1754567;79;22043;-75
2020/12/19 07:49:34;;;;;;;11.40;9.15;;;;;;;10.60;54.10;100909.05;1773707;78;21892;-74
2020/12/19 07:52:10;;;;;;;12.78;9.48;;;;;;;10.60;54.11;100909.91;1775206;79;21549;-74
2020/12/19 07:54:38;;;;;;;13.28;10.38;;;;;;;10.61;54.11;100912.07;1793313;79;21126;-74
2020/12/19 07:57:07;;;;;;;14.35;9.33;;;;;;;10.61;54.12;100914.23;1768569;79;21166;-75
2020/12/19 07:59:34;;;;;;;12.73;10.15;;;;;;;10.62;54.10;100919.05;1789810;79;21360;-75
2020/12/19 08:02:05;;;;;;;13.28;9.60;;;;;;;10.63;54.07;100915.42;1791438;78;21669;-75
2020/12/19 08:04:32;;;;;;;12.53;9.35;;;;;;;10.63;54.12;100912.27;1776489;79;21205;-75
2020/12/19 08:07:00;;;;;;;14.23;10.68;;;;;;;10.65;54.07;100916.13;1772833;79;21166;-75
2020/12/19 08:09:31;;;;;;;14.03;10.10;;;;;;;10.66;54.05;100919.11;1762110;79;21170;-75
2020/12/19 08:12:00;;;;;;;13.40;10.50;;;;;;;10.66;54.02;100923.10;1787805;78;21327;-75
2020/12/19 08:14:27;;;;;;;13.40;10.15;;;;;;;10.67;54.02;100919.48;1774256;79;21142;-76
2020/12/19 08:16:54;;;;;;;12.82;10.13;;;;;;;10.69;54.00;100927.31;1767401;79;21599;-75
2020/12/19 08:19:32;;;;;;;14.13;9.95;;;;;;;10.70;54.00;100925.86;1765425;79;21118;-76
2020/12/19 08:22:02;;;;;;;13.75;10.60;;;;;;;10.70;53.97;100922.34;1772636;79;21174;-76
2020/12/19 08:24:30;;;;;;;13.78;10.35;;;;;;;10.69;53.96;100918.84;1785982;78;21443;-75
2020/12/19 08:27:43;;;;;;;11.60;9.40;;;;;;;10.70;53.99;100919.21;1778287;79;21163;-76
2020/12/19 08:30:23;;;;;;;13.88;10.15;;;;;;;10.71;53.95;100922.20;1772496;78;21163;-76
2020/12/19 08:32:58;;;;;;;12.82;9.60;;;;;;;10.70;53.96;100914.36;1779334;79;21130;-74
2020/12/19 08:35:31;;;;;;;12.82;9.60;;;;;;;10.69;53.99;100916.69;1782160;78;21182;-74
2020/12/19 08:38:09;;;;;;;14.07;9.93;;;;;;;10.70;54.00;100917.88;1803004;77;21356;-73
2020/12/19 08:40:47;;;;;;;11.20;9.28;;;;;;;10.71;53.98;100914.73;1765804;79;22210;-74
2020/12/19 08:43:17;;;;;;;13.78;10.93;;;;;;;10.71;53.97;100912.07;1799896;78;21190;-74
2020/12/19 08:45:49;;;;;;;13.30;11.03;;;;;;;10.72;53.93;100911.07;1775192;77;21162;-75
2020/12/19 08:48:24;;;;;;;12.23;9.95;;;;;;;10.73;53.93;100904.80;1800183;78;21214;-73
2020/12/19 08:50:53;;;;;;;11.93;10.23;;;;;;;10.72;53.94;100905.29;1801701;77;21209;-74
2020/12/19 08:53:25;;;;;;;13.80;10.18;;;;;;;10.73;54.03;100893.66;1781624;78;21572;-73
2020/12/19 08:55:54;;;;;;;11.55;10.00;;;;;;;10.74;54.40;100892.70;1768041;79;21163;-71
2020/12/19 08:58:29;;;;;;;12.75;9.78;;;;;;;10.76;54.40;100889.91;1792266;77;21134;-73
2020/12/19 09:00:59;;;;;;;12.23;10.00;;;;;;;10.78;54.44;100886.61;1783909;77;21630;-72
2020/12/19 09:03:32;;;;;;;13.72;10.43;;;;;;;10.79;54.42;100882.45;1772648;79;21591;-73
2020/12/19 09:06:06;;;;;;;13.40;10.58;;;;;;;10.81;54.41;100879.66;1775460;78;21571;-73
2020/12/19 09:08:38;;;;;;;12.63;9.40;;;;;;;10.83;54.36;100871.06;1799514;77;21233;-75
2020/12/19 09:11:08;;;;;;;11.50;9.58;;;;;;;10.86;54.35;100877.93;1777647;77;26022;-74
2020/12/19 09:13:36;;;;;;;12.18;10.08;;;;;;;10.87;54.27;100872.95;1768465;79;21579;-73
2020/12/19 09:16:08;;;;;;;13.13;10.30;;;;;;;10.89;54.25;100874.97;1787928;78;22236;-75
2020/12/19 09:18:37;;;;;;;12.03;9.50;;;;;;;10.91;54.20;100875.66;1789814;78;21233;-76
2020/12/19 09:21:09;;;;;;;13.43;10.05;;;;;;;10.92;54.18;100876.03;1799014;78;21186;-75
2020/12/19 09:23:36;;;;;;;13.10;10.45;;;;;;;10.93;54.10;100874.56;1793130;78;21142;-74
2020/12/19 09:26:05;;;;;;;11.85;10.00;;;;;;;10.95;54.10;100878.38;1788053;77;21162;-73
2020/12/19 09:28:33;;;;;;;13.93;10.45;;;;;;;10.96;54.04;100879.58;1782465;77;21316;-74
2020/12/19 09:31:00;;;;;;;14.50;10.23;;;;;;;10.99;54.02;100874.45;1781186;79;21166;-71
2020/12/19 09:33:28;;;;;;;13.03;9.85;;;;;;;11.00;53.99;100878.80;1790808;77;21165;-73
2020/12/19 09:35:56;;;;;;;12.58;9.70;;;;;;;11.00;53.93;100879.63;1794906;78;21205;-72
2020/12/19 09:38:23;;;;;;;12.10;9.55;;;;;;;11.02;53.93;100875.51;1737117;80;21105;-72
2020/12/19 09:40:50;;;;;;;12.95;10.63;;;;;;;11.04;53.87;100871.38;1782792;79;21253;-72
2020/12/19 09:43:18;;;;;;;12.65;10.43;;;;;;;11.06;53.83;100871.58;1736572;80;21163;-71
2020/12/19 09:45:45;;;;;;;12.18;10.10;;;;;;;11.06;53.81;100872.08;1770834;79;21115;-73
2020/12/19 09:48:13;;;;;;;11.57;9.50;;;;;;;11.07;53.78;100875.92;1791181;79;21175;-70
2020/12/19 09:50:42;;;;;;;13.75;11.20;;;;;;;11.09;53.77;100875.79;1788963;78;21144;-71
2020/12/19 09:53:09;;;;;;;12.30;10.38;;;;;;;11.09;53.77;100877.95;1803140;78;21542;-70
2020/12/19 09:55:36;;;;;;;13.28;10.82;;;;;;;11.11;53.72;100869.34;1796346;79;21817;-72
2020/12/19 09:58:04;;;;;;;12.58;10.28;;;;;;;11.12;53.69;100870.16;1797048;79;21174;-71
2020/12/19 10:00:33;;;;;;;13.13;10.18;;;;;;;11.12;53.66;100872.33;1795094;79;21185;-74
2020/12/19 10:03:00;;;;;;;13.25;9.90;;;;;;;11.14;53.64;100870.86;1792121;79;21152;-69
2020/12/19 10:05:28;;;;;;;12.53;10.38;;;;;;;11.12;53.60;100868.34;1777946;79;21367;-71
2020/12/19 10:07:57;;;;;;;13.32;10.78;;;;;;;11.13;53.59;100872.69;1773132;78;21791;-75
2020/12/19 10:10:26;;;;;;;14.40;11.68;;;;;;;11.14;53.58;100861.05;1779947;78;21641;-72
2020/12/19 10:12:54;;;;;;;12.98;10.82;;;;;;;11.14;53.56;100867.70;1775019;78;21206;-70
2020/12/19 10:15:22;;;;;;;12.73;10.23;;;;;;;11.15;53.53;100872.05;1773994;79;21123;-74
2020/12/19 10:17:49;;;;;;;12.50;9.83;;;;;;;11.16;53.55;100872.41;1773579;79;21205;-75
2020/12/19 10:20:16;;;;;;;12.18;10.00;;;;;;;11.16;53.53;100873.74;1774171;79;21166;-75
2020/12/19 10:22:43;;;;;;;11.10;9.73;;;;;;;11.17;53.55;100865.27;1773687;78;21170;-76
2020/12/19 10:25:11;;;;;;;12.28;9.23;;;;;;;11.18;53.51;100866.45;1765198;79;21134;-75
2020/12/19 10:27:40;;;;;;;12.05;10.40;;;;;;;11.18;53.50;100865.13;1786726;79;21297;-75
2020/12/19 10:30:07;;;;;;;13.60;10.40;;;;;;;11.19;53.54;100868.11;1781160;78;21357;-75
2020/12/19 10:32:34;;;;;;;12.93;10.00;;;;;;;11.19;53.48;100862.80;1777380;79;21154;-74
2020/12/19 10:35:06;;;;;;;11.40;10.20;;;;;;;11.20;53.49;100864.95;1774665;78;21594;-75
2020/12/19 10:37:30;;;;;;;11.57;9.88;;;;;;;11.21;53.45;100863.48;1791223;79;21584;-76
2020/12/19 10:39:58;;;;;;;12.20;10.30;;;;;;;11.24;53.43;100862.34;1776589;79;21650;-73
2020/12/19 10:42:27;;;;;;;12.78;10.25;;;;;;;11.25;53.37;100868.53;1789104;79;21213;-72
2020/12/19 10:44:55;;;;;;;12.45;10.30;;;;;;;11.26;53.38;100870.19;1798960;79;21110;-70
2020/12/19 10:47:22;;;;;;;11.55;9.23;;;;;;;11.27;53.35;100863.41;1785079;79;21130;-70
2020/12/19 10:49:51;;;;;;;13.60;10.35;;;;;;;11.28;53.35;100864.23;1771873;79;21185;-71
2020/12/19 10:52:20;;;;;;;12.33;10.48;;;;;;;11.28;53.34;100862.91;1780294;79;21297;-70
2020/12/19 10:54:48;;;;;;;12.98;10.60;;;;;;;11.30;53.33;100867.58;1791440;77;21371;-71
2020/12/19 10:57:17;;;;;;;12.10;9.65;;;;;;;11.29;53.32;100859.27;1777220;79;21209;-69
2020/12/19 10:59:44;;;;;;;11.00;9.60;;;;;;;11.30;53.27;100864.45;1776695;77;21054;-70
2020/12/19 11:02:12;;;;;;;11.15;9.38;;;;;;;11.30;53.26;100860.46;1775394;79;21095;-70
2020/12/19 11:04:41;;;;;;;11.60;9.73;;;;;;;11.31;53.26;100859.96;1782977;79;21075;-70
2020/12/19 11:07:08;;;;;;;13.60;10.80;;;;;;;11.31;53.27;100856.80;1784218;79;21239;-68
2020/12/19 11:09:35;;;;;;;12.95;9.98;;;;;;;11.31;53.24;100857.30;1793595;79;21142;-69
2020/12/19 11:12:02;;;;;;;11.00;9.38;;;;;;;11.33;53.23;100855.33;1766152;79;21111;-68
2020/12/19 11:14:32;;;;;;;13.05;10.50;;;;;;;11.33;53.27;100859.32;1753679;80;21199;-69
2020/12/19 11:17:00;;;;;;;12.78;10.32;;;;;;;11.33;53.23;100856.66;1760342;80;21160;-67
2020/12/19 11:19:29;;;;;;;12.50;10.23;;;;;;;11.33;53.22;100855.33;1761134;80;22082;-69
2020/12/19 11:21:56;;;;;;;11.12;9.60;;;;;;;11.34;53.23;100857.86;1760221;80;21601;-69
2020/12/19 11:24:24;;;;;;;12.03;9.85;;;;;;;11.34;53.22;100860.52;1762530;80;21180;-69